createdAt,value
2023-01-28T00:00:06.526Z,102941.47
2023-01-28T00:02:08.978Z,102952.13
2023-01-28T00:04:11.301Z,102953.13
2023-01-28T00:06:15.671Z,102937.06
2023-01-28T00:08:17.390Z,102936.94
2023-01-28T00:10:19.178Z,102944.16
2023-01-28T00:12:20.832Z,102939.66
2023-01-28T00:14:22.342Z,102938.78
2023-01-28T00:16:23.955Z,102936.09
2023-01-28T00:18:25.632Z,102932.53
2023-01-28T00:20:27.323Z,102926.28
2023-01-28T00:22:31.324Z,102937.91
2023-01-28T00:24:32.935Z,102935.22
2023-01-28T00:26:34.635Z,102940.72
2023-01-28T00:28:36.351Z,102936.31
2023-01-28T00:30:38.039Z,102938.16
2023-01-28T00:32:39.639Z,102941.91
2023-01-28T00:34:42.464Z,102935.69
2023-01-28T00:36:44.009Z,102936.66
2023-01-28T00:38:51.269Z,102935.69
2023-01-28T00:40:53.213Z,102934.94
2023-01-28T00:42:54.770Z,102938.47
2023-01-28T00:44:56.387Z,102934.06
2023-01-28T00:46:58.178Z,102930.41
2023-01-28T00:48:59.852Z,102929.53
2023-01-28T00:51:01.517Z,102925.88
2023-01-28T00:53:03.261Z,102930.41
2023-01-28T00:55:09.215Z,102934.94
2023-01-28T00:57:11.029Z,102933.97
2023-01-28T00:59:12.748Z,102930.41
2023-01-28T01:01:17.259Z,102924.16
2023-01-28T01:03:19.748Z,102936.66
2023-01-28T01:05:21.322Z,102937.50
2023-01-28T01:07:23.229Z,102935.69
2023-01-28T01:09:25.242Z,102930.41
2023-01-28T01:11:28.894Z,102938.47
2023-01-28T01:13:32.334Z,102943.97
2023-01-28T01:15:34.256Z,102935.88
2023-01-28T01:17:36.786Z,102939.56
2023-01-28T01:19:38.519Z,102941.28
2023-01-28T01:21:40.211Z,102936.97
2023-01-28T01:23:42.060Z,102934.28
2023-01-28T01:25:43.628Z,102932.56
2023-01-28T01:27:50.184Z,102937.94
2023-01-28T01:29:51.932Z,102931.72
2023-01-28T01:31:53.613Z,102935.38
2023-01-28T01:33:55.746Z,102937.22
2023-01-28T01:35:57.925Z,102932.78
2023-01-28T01:37:59.536Z,102930.97
2023-01-28T01:40:01.284Z,102923.84
2023-01-28T01:42:03.261Z,102932.78
2023-01-28T01:44:06.793Z,102928.38
2023-01-28T01:46:08.818Z,102931.06
2023-01-28T01:48:18.863Z,102922.16
2023-01-28T01:50:27.840Z,102921.28
2023-01-28T01:52:33.777Z,102914.16
2023-01-28T01:54:38.708Z,102916.13
2023-01-28T01:56:45.034Z,102912.56
2023-01-28T01:58:50.822Z,102914.50
2023-01-28T02:00:53.765Z,102913.63
2023-01-28T02:02:55.797Z,102915.50
2023-01-28T02:04:57.586Z,102920.97
2023-01-28T02:07:01.614Z,102913.00
2023-01-28T02:09:06.885Z,102922.91
2023-01-28T02:11:10.258Z,102914.00
2023-01-28T02:13:13.706Z,102917.66
2023-01-28T02:15:19.327Z,102917.66
2023-01-28T02:17:22.748Z,102919.47
2023-01-28T02:19:29.844Z,102916.78
2023-01-28T02:22:05.898Z,102920.34
2023-01-28T02:24:24.990Z,102915.19
2023-01-28T02:26:53.640Z,102917.00
2023-01-28T02:29:03.837Z,102918.09
2023-01-28T02:31:14.265Z,102917.25
2023-01-28T02:33:20.695Z,102915.63
2023-01-28T02:35:29.315Z,102918.31
2023-01-28T02:37:37.992Z,102920.25
2023-01-28T02:39:46.363Z,102920.25
2023-01-28T02:41:55.115Z,102914.00
2023-01-28T02:43:58.211Z,102905.22
2023-01-28T02:46:02.396Z,102908.00
2023-01-28T02:48:04.215Z,102909.81
2023-01-28T02:50:09.831Z,102916.16
2023-01-28T02:52:25.965Z,102907.13
2023-01-28T02:54:35.786Z,102901.97
2023-01-28T02:56:47.164Z,102903.81
2023-01-28T02:58:59.750Z,102909.19
2023-01-28T03:01:11.178Z,102914.56
2023-01-28T03:03:20.712Z,102904.75
2023-01-28T03:05:27.888Z,102897.69
2023-01-28T03:07:33.407Z,102909.41
2023-01-28T03:09:36.678Z,102922.00
2023-01-28T03:11:42.371Z,102910.38
2023-01-28T03:13:46.423Z,102907.69
2023-01-28T03:15:48.944Z,102902.31
2023-01-28T03:17:58.848Z,102905.84
2023-01-28T03:20:00.851Z,102902.31
2023-01-28T03:22:04.669Z,102898.75
2023-01-28T03:24:12.145Z,102894.34
2023-01-28T03:26:16.018Z,102895.31
2023-01-28T03:28:21.315Z,102898.88
2023-01-28T03:30:29.419Z,102901.56
2023-01-28T03:32:32.622Z,102891.75
2023-01-28T03:34:36.072Z,102901.56
2023-01-28T03:36:37.726Z,102896.19
2023-01-28T03:38:41.803Z,102899.75
2023-01-28T03:40:49.337Z,102901.44
2023-01-28T03:42:51.043Z,102897.03
2023-01-28T03:44:55.015Z,102907.81
2023-01-28T03:46:56.807Z,102905.13
2023-01-28T03:48:58.580Z,102905.94
2023-01-28T03:51:01.806Z,102909.63
2023-01-28T03:53:03.432Z,102901.66
2023-01-28T03:55:05.663Z,102904.34
2023-01-28T03:57:07.175Z,102907.03
2023-01-28T03:59:08.861Z,102900.94
2023-01-28T04:01:10.412Z,102892.94
2023-01-28T04:03:13.960Z,102895.63
2023-01-28T04:05:16.814Z,102894.03
2023-01-28T04:07:20.347Z,102893.91
2023-01-28T04:09:22.468Z,102886.69
2023-01-28T04:11:24.150Z,102888.53
2023-01-28T04:13:25.910Z,102889.53
2023-01-28T04:15:27.597Z,102904.69
2023-01-28T04:17:29.630Z,102902.97
2023-01-28T04:19:31.318Z,102905.66
2023-01-28T04:21:33.327Z,102892.31
2023-01-28T04:23:36.721Z,102897.69
2023-01-28T04:25:38.317Z,102901.25
2023-01-28T04:27:40.063Z,102899.53
2023-01-28T04:29:41.548Z,102905.78
2023-01-28T04:31:43.261Z,102905.78
2023-01-28T04:33:45.151Z,102913.84
2023-01-28T04:35:46.833Z,102910.28
2023-01-28T04:37:48.403Z,102910.28
2023-01-28T04:39:51.385Z,102908.47
2023-01-28T04:41:53.015Z,102903.94
2023-01-28T04:43:54.821Z,102896.97
2023-01-28T04:45:56.368Z,102903.16
2023-01-28T04:47:57.963Z,102897.91
2023-01-28T04:49:59.922Z,102909.53
2023-01-28T04:52:01.691Z,102899.84
2023-01-28T04:54:03.681Z,102903.41
2023-01-28T04:56:07.009Z,102899.84
2023-01-28T04:58:09.295Z,102902.53
2023-01-28T05:00:11.972Z,102906.09
2023-01-28T05:02:13.940Z,102898.00
2023-01-28T05:04:15.829Z,102895.31
2023-01-28T05:06:17.440Z,102896.31
2023-01-28T05:08:19.190Z,102893.63
2023-01-28T05:10:23.462Z,102891.91
2023-01-28T05:12:27.401Z,102899.09
2023-01-28T05:14:29.129Z,102896.50
2023-01-28T05:16:30.858Z,102894.81
2023-01-28T05:18:32.420Z,102895.78
2023-01-28T05:20:34.201Z,102894.91
2023-01-28T05:22:35.847Z,102892.31
2023-01-28T05:24:37.769Z,102892.31
2023-01-28T05:26:39.553Z,102899.56
2023-01-28T05:28:42.715Z,102890.63
2023-01-28T05:30:44.497Z,102888.91
2023-01-28T05:32:46.366Z,102888.91
2023-01-28T05:34:48.457Z,102887.16
2023-01-28T05:36:50.139Z,102888.97
2023-01-28T05:38:51.768Z,102888.16
2023-01-28T05:40:53.622Z,102886.44
2023-01-28T05:42:55.350Z,102895.47
2023-01-28T05:44:58.282Z,102885.66
2023-01-28T05:46:59.903Z,102884.06
2023-01-28T05:49:01.858Z,102883.97
2023-01-28T05:51:04.388Z,102875.13
2023-01-28T05:53:06.144Z,102884.06
2023-01-28T05:55:08.905Z,102885.88
2023-01-28T05:57:11.173Z,102894.81
2023-01-28T05:59:13.661Z,102896.63
2023-01-28T06:01:16.712Z,102880.63
2023-01-28T06:03:18.375Z,102877.94
2023-01-28T06:05:20.701Z,102887.84
2023-01-28T06:07:22.399Z,102880.72
2023-01-28T06:09:25.049Z,102888.78
2023-01-28T06:11:26.712Z,102886.19
2023-01-28T06:13:28.456Z,102893.31
2023-01-28T06:15:30.217Z,102887.06
2023-01-28T06:17:33.203Z,102885.38
2023-01-28T06:19:34.742Z,102879.13
2023-01-28T06:21:36.387Z,102886.31
2023-01-28T06:23:38.206Z,102889.97
2023-01-28T06:25:40.094Z,102884.72
2023-01-28T06:27:41.782Z,102888.38
2023-01-28T06:29:43.407Z,102881.34
2023-01-28T06:31:44.976Z,102885.91
2023-01-28T06:33:47.955Z,102886.88
2023-01-28T06:35:49.690Z,102891.38
2023-01-28T06:37:51.298Z,102888.69
2023-01-28T06:39:52.935Z,102888.78
2023-01-28T06:41:55.853Z,102883.41
2023-01-28T06:43:57.814Z,102875.47
2023-01-28T06:45:59.504Z,102881.81
2023-01-28T06:48:01.309Z,102881.94
2023-01-28T06:50:04.925Z,102889.13
2023-01-28T06:52:07.268Z,102883.84
2023-01-28T06:54:08.918Z,102881.25
2023-01-28T06:56:11.157Z,102879.44
2023-01-28T06:58:14.314Z,102879.56
2023-01-28T07:00:17.097Z,102883.13
2023-01-28T07:02:18.974Z,102884.06
2023-01-28T07:04:21.189Z,102882.34
2023-01-28T07:06:24.437Z,102879.78
2023-01-28T07:08:26.029Z,102881.69
2023-01-28T07:10:28.212Z,102887.19
2023-01-28T07:12:31.551Z,102890.94
2023-01-28T07:14:33.642Z,102896.44
2023-01-28T07:16:37.597Z,102893.09
2023-01-28T07:18:39.266Z,102887.91
2023-01-28T07:20:41.000Z,102889.88
2023-01-28T07:22:45.283Z,102899.84
2023-01-28T07:24:46.788Z,102899.97
2023-01-28T07:26:48.498Z,102898.38
2023-01-28T07:28:50.199Z,102898.44
2023-01-28T07:30:53.655Z,102902.22
2023-01-28T07:32:56.641Z,102904.13
2023-01-28T07:34:58.369Z,102903.41
2023-01-28T07:37:01.795Z,102908.97
2023-01-28T07:39:05.558Z,102918.00
2023-01-28T07:41:07.317Z,102915.53
2023-01-28T07:43:11.353Z,102907.69
2023-01-28T07:45:12.951Z,102906.81
2023-01-28T07:47:14.619Z,102905.19
2023-01-28T07:49:16.313Z,102911.53
2023-01-28T07:51:18.030Z,102904.53
2023-01-28T07:53:19.886Z,102906.47
2023-01-28T07:55:23.383Z,102912.78
2023-01-28T07:57:24.986Z,102912.06
2023-01-28T07:59:27.004Z,102916.56
2023-01-28T08:01:33.878Z,102919.47
2023-01-28T08:03:35.694Z,102918.47
2023-01-28T08:05:41.208Z,102914.91
2023-01-28T08:07:42.818Z,102921.28
2023-01-28T08:09:44.361Z,102924.81
2023-01-28T08:11:47.186Z,102926.66
2023-01-28T08:13:48.947Z,102920.28
2023-01-28T08:15:55.797Z,102927.31
2023-01-28T08:17:58.998Z,102930.00
2023-01-28T08:20:00.613Z,102935.38
2023-01-28T08:22:02.708Z,102929.13
2023-01-28T08:24:05.427Z,102929.13
2023-01-28T08:26:07.171Z,102930.84
2023-01-28T08:28:11.107Z,102924.63
2023-01-28T08:30:13.615Z,102929.88
2023-01-28T08:32:18.603Z,102942.34
2023-01-28T08:34:21.885Z,102945.03
2023-01-28T08:36:25.716Z,102945.91
2023-01-28T08:38:27.444Z,102943.13
2023-01-28T08:40:29.776Z,102949.31
2023-01-28T08:42:32.660Z,102952.88
2023-01-28T08:44:35.633Z,102959.91
2023-01-28T08:46:37.191Z,102956.13
2023-01-28T08:48:41.371Z,102958.72
2023-01-28T08:50:43.576Z,102963.13
2023-01-28T08:52:45.855Z,102968.41
2023-01-28T08:54:47.420Z,102970.97
2023-01-28T08:56:49.466Z,102971.75
2023-01-28T08:58:51.165Z,102971.75
2023-01-28T09:00:54.343Z,102980.53
2023-01-28T09:02:55.835Z,102984.97
2023-01-28T09:04:57.433Z,102981.31
2023-01-28T09:06:58.971Z,102980.38
2023-01-28T09:09:01.932Z,102985.53
2023-01-28T09:11:05.428Z,102983.72
2023-01-28T09:13:08.106Z,102985.41
2023-01-28T09:15:10.914Z,102985.31
2023-01-28T09:17:14.245Z,102992.44
2023-01-28T09:19:15.906Z,102997.69
2023-01-28T09:21:17.868Z,103000.28
2023-01-28T09:23:19.559Z,102992.00
2023-01-28T09:25:21.472Z,102991.03
2023-01-28T09:27:23.012Z,102982.84
2023-01-28T09:29:24.798Z,102985.47
2023-01-28T09:31:26.452Z,102982.56
2023-01-28T09:33:30.036Z,102980.59
2023-01-28T09:35:31.754Z,102986.75
2023-01-28T09:37:33.457Z,102979.44
2023-01-28T09:39:34.971Z,102978.38
2023-01-28T09:41:50.904Z,102979.03
2023-01-28T09:44:05.279Z,102985.94
2023-01-28T09:46:11.003Z,102994.88
2023-01-28T09:48:16.285Z,102990.13
2023-01-28T09:50:26.519Z,102981.06
2023-01-28T09:52:33.790Z,102982.72
2023-01-28T09:54:42.361Z,102991.53
2023-01-28T09:56:46.492Z,102991.31
2023-01-28T09:58:48.204Z,102995.63
2023-01-28T10:00:57.190Z,103002.63
2023-01-28T10:03:19.891Z,103005.88
2023-01-28T10:05:32.446Z,102999.41
2023-01-28T10:07:42.733Z,102996.72
2023-01-28T10:09:51.121Z,103001.78
2023-01-28T10:12:10.910Z,102993.38
2023-01-28T10:14:24.523Z,102981.56
2023-01-28T10:16:31.377Z,102982.19
2023-01-28T10:18:44.287Z,102981.84
2023-01-28T10:20:49.807Z,102981.66
2023-01-28T10:22:55.961Z,102986.81
2023-01-28T10:25:02.998Z,102981.22
2023-01-28T10:27:13.275Z,102976.47
2023-01-28T10:29:18.336Z,102968.16
2023-01-28T10:31:21.781Z,102971.63
2023-01-28T10:33:31.738Z,102972.28
2023-01-28T10:35:38.632Z,102963.88
2023-01-28T10:37:41.828Z,102964.69
2023-01-28T10:39:44.821Z,102962.47
2023-01-28T10:41:57.422Z,102945.31
2023-01-28T10:43:59.740Z,102936.91
2023-01-28T10:46:06.883Z,102941.97
2023-01-28T10:48:16.609Z,102940.00
2023-01-28T10:50:22.860Z,102942.38
2023-01-28T10:52:24.776Z,102924.28
2023-01-28T10:54:28.941Z,102924.78
2023-01-28T10:56:32.651Z,102930.69
2023-01-28T10:58:37.156Z,102919.59
2023-01-28T11:00:38.998Z,102907.47
2023-01-28T11:02:42.067Z,102910.72
2023-01-28T11:04:43.627Z,102901.19
2023-01-28T11:06:53.211Z,102896.91
2023-01-28T11:08:55.127Z,102880.41
2023-01-28T11:10:59.101Z,102880.06
2023-01-28T11:13:04.132Z,102886.94
2023-01-28T11:15:07.044Z,102891.22
2023-01-28T11:17:17.375Z,102888.19
2023-01-28T11:19:20.817Z,102887.06
2023-01-28T11:21:25.560Z,102884.38
2023-01-28T11:23:29.745Z,102877.91
2023-01-28T11:25:34.280Z,102874.97
2023-01-28T11:27:37.462Z,102869.44
2023-01-28T11:29:40.682Z,102871.19
2023-01-28T11:31:44.289Z,102875.59
2023-01-28T11:33:50.405Z,102873.63
2023-01-28T11:35:55.991Z,102876.22
2023-01-28T11:37:58.211Z,102859.06
2023-01-28T11:40:14.441Z,102860.56
2023-01-28T11:42:19.080Z,102861.28
2023-01-28T11:44:24.143Z,102857.63
2023-01-28T11:46:46.970Z,102847.44
2023-01-28T11:48:59.706Z,102840.59
2023-01-28T11:51:06.174Z,102825.38
2023-01-28T11:53:25.002Z,102812.41
2023-01-28T11:55:39.474Z,102815.56
2023-01-28T11:57:53.828Z,102808.94
2023-01-28T12:00:12.459Z,102805.63
2023-01-28T12:02:30.370Z,102783.66
2023-01-28T12:04:49.423Z,102772.50
2023-01-28T12:07:10.261Z,102758.66
2023-01-28T12:09:21.796Z,102766.22
2023-01-28T12:11:31.270Z,102766.84
2023-01-28T12:13:48.858Z,102770.03
2023-01-28T12:19:00.164Z,102766.94
2023-01-28T12:21:05.002Z,102775.63
2023-01-28T12:23:25.294Z,102768.00
2023-01-28T12:25:39.484Z,102769.72
2023-01-28T12:27:50.044Z,102762.72
2023-01-28T12:29:58.333Z,102764.00
2023-01-28T12:32:31.721Z,102769.50
2023-01-28T12:34:52.434Z,102759.06
2023-01-28T12:37:03.239Z,102754.19
2023-01-28T12:39:16.674Z,102758.25
2023-01-28T12:41:21.152Z,102762.31
2023-01-28T12:43:36.078Z,102761.13
2023-01-28T12:45:41.171Z,102773.25
2023-01-28T12:47:49.457Z,102762.97
2023-01-28T12:49:57.843Z,102753.41
2023-01-28T12:52:04.836Z,102753.41
2023-01-28T12:54:16.572Z,102748.72
2023-01-28T12:56:22.681Z,102751.31
2023-01-28T12:58:35.914Z,102747.75
2023-01-28T13:00:45.240Z,102753.63
2023-01-28T13:02:53.727Z,102745.28
2023-01-28T13:05:04.915Z,102747.63
2023-01-28T13:07:13.770Z,102751.63
2023-01-28T13:09:19.468Z,102741.44
2023-01-28T13:11:21.646Z,102750.16
2023-01-28T13:13:30.707Z,102750.63
2023-01-28T13:15:36.410Z,102763.28
2023-01-28T13:17:38.041Z,102771.09
2023-01-28T13:19:43.045Z,102751.13
2023-01-28T13:21:49.561Z,102754.44
2023-01-28T13:24:03.534Z,102746.78
2023-01-28T13:26:27.869Z,102758.94
2023-01-28T13:28:32.145Z,102755.09
2023-01-28T13:30:36.077Z,102747.50
2023-01-28T13:32:37.896Z,102750.03
2023-01-28T13:34:42.613Z,102753.09
2023-01-28T13:36:48.983Z,102762.19
2023-01-28T13:39:02.028Z,102756.63
2023-01-28T13:41:03.883Z,102749.66
2023-01-28T13:43:07.067Z,102746.88
2023-01-28T13:45:22.144Z,102756.81
2023-01-28T13:47:29.991Z,102748.72
2023-01-28T13:49:38.261Z,102742.47
2023-01-28T13:51:54.399Z,102726.84
2023-01-28T13:54:01.221Z,102729.03
2023-01-28T13:56:07.981Z,102727.06
2023-01-28T13:58:44.475Z,102732.34
2023-01-28T14:01:13.210Z,102740.09
2023-01-28T14:03:42.829Z,102753.59
2023-01-28T14:06:09.475Z,102765.78
2023-01-28T14:08:43.434Z,102762.50
2023-01-28T14:10:57.624Z,102752.31
2023-01-28T14:13:14.575Z,102770.63
2023-01-28T14:15:43.788Z,102785.34
2023-01-28T14:17:47.979Z,102780.69
2023-01-28T14:19:52.355Z,102783.41
2023-01-28T14:21:54.093Z,102782.53
2023-01-28T14:23:58.493Z,102777.41
2023-01-28T14:26:16.665Z,102781.94
2023-01-28T14:28:36.038Z,102780.94
2023-01-28T14:30:47.717Z,102778.88
2023-01-28T14:32:52.449Z,102783.66
2023-01-28T14:34:55.915Z,102787.59
2023-01-28T14:37:00.686Z,102796.31
2023-01-28T14:39:04.015Z,102785.28
2023-01-28T14:41:06.056Z,102784.81
2023-01-28T14:43:13.600Z,102789.81
2023-01-28T14:45:30.274Z,102776.72
2023-01-28T14:47:58.683Z,102766.41
2023-01-28T14:50:21.143Z,102769.72
2023-01-28T14:52:50.368Z,102770.09
2023-01-28T14:55:05.320Z,102766.19
2023-01-28T14:57:21.233Z,102771.19
2023-01-28T14:59:28.189Z,102769.09
2023-01-28T15:01:31.430Z,102778.63
2023-01-28T15:03:33.728Z,102771.16
2023-01-28T15:05:35.503Z,102776.91
2023-01-28T15:07:37.203Z,102769.28
2023-01-28T15:09:38.988Z,102766.22
2023-01-28T15:11:45.733Z,102774.66
2023-01-28T15:13:49.731Z,102767.06
2023-01-28T15:15:52.268Z,102757.59
2023-01-28T15:17:54.759Z,102745.47
2023-01-28T15:19:57.690Z,102744.97
2023-01-28T15:22:02.252Z,102736.41
2023-01-28T15:24:04.562Z,102750.19
2023-01-28T15:26:07.569Z,102751.66
2023-01-28T15:28:23.993Z,102745.63
2023-01-28T15:30:28.180Z,102748.78
2023-01-28T15:32:31.564Z,102756.34
2023-01-28T15:34:33.226Z,102766.69
2023-01-28T15:36:35.146Z,102769.75
2023-01-28T15:38:36.787Z,102774.63
2023-01-28T15:40:42.955Z,102787.44
2023-01-28T15:42:46.733Z,102773.47
2023-01-28T15:44:50.619Z,102778.34
2023-01-28T15:46:52.612Z,102772.31
2023-01-28T15:48:59.593Z,102761.91
2023-01-28T15:51:05.022Z,102771.91
2023-01-28T15:53:08.827Z,102765.88
2023-01-28T15:55:30.732Z,102774.94
2023-01-28T15:57:34.721Z,102763.78
2023-01-28T15:59:36.630Z,102771.09
2023-01-28T16:01:39.730Z,102777.56
2023-01-28T16:03:43.528Z,102790.25
2023-01-28T16:05:56.626Z,102792.19
2023-01-28T16:07:58.639Z,102797.66
2023-01-28T16:10:02.135Z,102788.97
2023-01-28T16:12:07.189Z,102778.34
2023-01-28T16:14:21.842Z,102779.16
2023-01-28T16:16:33.899Z,102773.16
2023-01-28T16:18:41.310Z,102753.59
2023-01-28T16:20:48.403Z,102743.81
2023-01-28T16:22:51.539Z,102739.53
2023-01-28T16:24:54.419Z,102746.72
2023-01-28T16:26:57.195Z,102731.69
2023-01-28T16:29:01.384Z,102742.31
2023-01-28T16:31:03.125Z,102731.56
2023-01-28T16:33:04.693Z,102724.47
2023-01-28T16:35:15.414Z,102726.31
2023-01-28T16:37:17.300Z,102730.06
2023-01-28T16:39:19.074Z,102739.13
2023-01-28T16:41:27.392Z,102744.50
2023-01-28T16:43:29.222Z,102737.38
2023-01-28T16:45:31.072Z,102724.91
2023-01-28T16:47:34.161Z,102731.16
2023-01-28T16:49:36.268Z,102735.66
2023-01-28T16:51:42.391Z,102734.91
2023-01-28T16:53:45.811Z,102733.09
2023-01-28T16:55:50.486Z,102735.78
2023-01-28T16:57:55.394Z,102728.69
2023-01-28T16:59:57.186Z,102738.56
2023-01-28T17:01:58.856Z,102739.53
2023-01-28T17:04:00.545Z,102734.16
2023-01-28T17:06:02.245Z,102721.72
2023-01-28T17:08:05.930Z,102721.06
2023-01-28T17:10:08.886Z,102730.97
2023-01-28T17:12:10.522Z,102732.66
2023-01-28T17:14:12.338Z,102748.91
2023-01-28T17:16:14.083Z,102756.97
2023-01-28T17:18:16.026Z,102749.88
2023-01-28T17:20:18.109Z,102741.81
2023-01-28T17:22:19.750Z,102741.94
2023-01-28T17:24:22.956Z,102732.03
2023-01-28T17:26:24.483Z,102731.19
2023-01-28T17:28:26.023Z,102743.63
2023-01-28T17:30:27.528Z,102734.84
2023-01-28T17:32:29.339Z,102743.75
2023-01-28T17:34:30.877Z,102742.91
2023-01-28T17:36:32.583Z,102734.84
2023-01-28T17:38:34.661Z,102741.94
2023-01-28T17:40:37.580Z,102729.47
2023-01-28T17:42:39.542Z,102726.78
2023-01-28T17:44:41.339Z,102724.94
2023-01-28T17:46:43.273Z,102728.50
2023-01-28T17:48:44.992Z,102733.97
2023-01-28T17:50:46.540Z,102726.63
2023-01-28T17:52:48.230Z,102727.50
2023-01-28T17:54:49.937Z,102726.63
2023-01-28T17:56:53.215Z,102723.94
2023-01-28T17:58:56.815Z,102723.94
2023-01-28T18:00:58.467Z,102713.34
2023-01-28T18:03:00.614Z,102715.06
2023-01-28T18:05:02.195Z,102710.66
2023-01-28T18:07:03.908Z,102711.50
2023-01-28T18:09:05.991Z,102705.38
2023-01-28T18:11:08.137Z,102702.81
2023-01-28T18:13:11.165Z,102693.88
2023-01-28T18:15:12.908Z,102693.75
2023-01-28T18:17:14.747Z,102696.44
2023-01-28T18:19:16.314Z,102693.75
2023-01-28T18:21:23.418Z,102694.84
2023-01-28T18:23:25.331Z,102708.38
2023-01-28T18:25:26.937Z,102713.88
2023-01-28T18:27:28.585Z,102717.53
2023-01-28T18:29:31.849Z,102713.03
2023-01-28T18:31:33.582Z,102713.97
2023-01-28T18:33:35.168Z,102707.88
2023-01-28T18:35:41.556Z,102706.91
2023-01-28T18:37:43.259Z,102705.28
2023-01-28T18:39:44.835Z,102705.19
2023-01-28T18:41:46.878Z,102702.50
2023-01-28T18:43:48.825Z,102695.41
2023-01-28T18:45:54.366Z,102688.28
2023-01-28T18:47:55.899Z,102675.63
2023-01-28T18:49:57.470Z,102690.88
2023-01-28T18:51:59.188Z,102675.72
2023-01-28T18:54:02.948Z,102677.53
2023-01-28T18:56:06.433Z,102675.72
2023-01-28T18:58:08.232Z,102674.84
2023-01-28T19:00:11.052Z,102677.53
2023-01-28T19:02:14.277Z,102692.72
2023-01-28T19:04:16.582Z,102691.97
2023-01-28T19:06:18.283Z,102698.22
2023-01-28T19:08:21.026Z,102691.09
2023-01-28T19:10:22.784Z,102694.66
2023-01-28T19:12:24.594Z,102701.00
2023-01-28T19:14:26.470Z,102705.41
2023-01-28T19:16:28.509Z,102696.56
2023-01-28T19:18:31.848Z,102697.44
2023-01-28T19:20:33.456Z,102692.94
2023-01-28T19:22:35.174Z,102694.66
2023-01-28T19:24:37.027Z,102698.31
2023-01-28T19:26:38.805Z,102697.44
2023-01-28T19:28:40.556Z,102702.81
2023-01-28T19:30:42.203Z,102700.03
2023-01-28T19:32:44.118Z,102701.72
2023-01-28T19:34:47.012Z,102697.34
2023-01-28T19:36:48.660Z,102699.03
2023-01-28T19:38:50.304Z,102699.03
2023-01-28T19:40:52.069Z,102699.91
2023-01-28T19:42:54.503Z,102691.84
2023-01-28T19:44:56.099Z,102688.19
2023-01-28T19:46:57.841Z,102690.88
2023-01-28T19:48:59.602Z,102683.69
2023-01-28T19:51:07.676Z,102691.63
2023-01-28T19:53:09.355Z,102688.19
2023-01-28T19:55:11.021Z,102682.81
2023-01-28T19:57:12.638Z,102684.53
2023-01-28T19:59:14.252Z,102682.72
2023-01-28T20:01:17.729Z,102683.56
2023-01-28T20:03:19.487Z,102681.84
2023-01-28T20:05:21.302Z,102674.53
2023-01-28T20:07:24.198Z,102679.91
2023-01-28T20:09:25.932Z,102680.66
2023-01-28T20:11:27.786Z,102675.16
2023-01-28T20:13:30.887Z,102667.97
2023-01-28T20:15:32.655Z,102670.56
2023-01-28T20:17:34.530Z,102670.56
2023-01-28T20:19:36.131Z,102667.75
2023-01-28T20:21:37.641Z,102671.28
2023-01-28T20:23:40.611Z,102657.00
2023-01-28T20:25:42.446Z,102663.13
2023-01-28T20:27:47.140Z,102664.09
2023-01-28T20:29:48.695Z,102660.53
2023-01-28T20:32:05.124Z,102656.25
2023-01-28T20:34:14.928Z,102649.06
2023-01-28T20:36:17.943Z,102647.34
2023-01-28T20:38:19.935Z,102648.28
2023-01-28T20:40:23.027Z,102652.81
2023-01-28T20:42:24.528Z,102636.03
2023-01-28T20:44:26.318Z,102641.41
2023-01-28T20:46:29.822Z,102648.75
2023-01-28T20:48:31.715Z,102647.88
2023-01-28T20:50:34.902Z,102640.91
2023-01-28T20:52:36.625Z,102636.41
2023-01-28T20:54:38.403Z,102627.59
2023-01-28T20:56:41.290Z,102628.66
2023-01-28T20:58:42.858Z,102622.44
2023-01-28T21:00:44.339Z,102617.94
2023-01-28T21:02:45.977Z,102622.53
2023-01-28T21:04:47.548Z,102619.13
2023-01-28T21:06:49.163Z,102624.47
2023-01-28T21:08:51.453Z,102626.31
2023-01-28T21:10:54.960Z,102624.47
2023-01-28T21:12:58.326Z,102625.44
2023-01-28T21:15:00.241Z,102622.03
2023-01-28T21:17:01.902Z,102622.88
2023-01-28T21:19:03.587Z,102630.09
2023-01-28T21:21:07.634Z,102628.25
2023-01-28T21:23:09.201Z,102624.81
2023-01-28T21:25:10.891Z,102640.84
2023-01-28T21:27:12.683Z,102630.09
2023-01-28T21:29:15.925Z,102638.25
2023-01-28T21:31:19.722Z,102638.16
2023-01-28T21:33:21.310Z,102625.44
2023-01-28T21:35:23.141Z,102625.56
2023-01-28T21:37:25.576Z,102619.22
2023-01-28T21:39:27.401Z,102625.44
2023-01-28T21:41:29.182Z,102625.44
2023-01-28T21:43:31.611Z,102637.06
2023-01-28T21:45:34.669Z,102631.78
2023-01-28T21:47:36.224Z,102629.84
2023-01-28T21:49:37.865Z,102637.78
2023-01-28T21:51:39.701Z,102630.72
2023-01-28T21:53:42.360Z,102623.53
2023-01-28T21:55:44.864Z,102619.13
2023-01-28T21:57:48.088Z,102620.84
2023-01-28T21:59:49.887Z,102618.97
2023-01-28T22:01:53.258Z,102607.41
2023-01-28T22:03:54.849Z,102604.72
2023-01-28T22:05:56.439Z,102604.59
2023-01-28T22:07:58.053Z,102604.72
2023-01-28T22:09:59.714Z,102609.97
2023-01-28T22:12:02.112Z,102608.22
2023-01-28T22:14:04.153Z,102605.56
2023-01-28T22:16:09.255Z,102601.03
2023-01-28T22:18:12.517Z,102605.44
2023-01-28T22:20:14.674Z,102600.06
2023-01-28T22:22:17.565Z,102594.69
2023-01-28T22:24:21.057Z,102592.88
2023-01-28T22:26:22.725Z,102593.84
2023-01-28T22:28:25.508Z,102600.06
2023-01-28T22:30:29.188Z,102592.00
2023-01-28T22:32:30.782Z,102600.94
2023-01-28T22:34:33.850Z,102593.84
2023-01-28T22:36:35.695Z,102596.53
2023-01-28T22:38:37.340Z,102592.97
2023-01-28T22:40:39.319Z,102595.66
2023-01-28T22:42:41.023Z,102593.84
2023-01-28T22:44:42.711Z,102581.38
2023-01-28T22:46:44.536Z,102584.19
2023-01-28T22:48:46.690Z,102585.16
2023-01-28T22:50:49.607Z,102584.19
2023-01-28T22:52:51.146Z,102577.00
2023-01-28T22:54:52.659Z,102571.63
2023-01-28T22:56:54.209Z,102573.31
2023-01-28T22:58:56.711Z,102564.41
2023-01-28T23:00:58.453Z,102558.91
2023-01-28T23:03:00.385Z,102553.53
2023-01-28T23:05:02.074Z,102553.53
2023-01-28T23:07:05.381Z,102546.34
2023-01-28T23:09:07.321Z,102537.31
2023-01-28T23:11:09.601Z,102541.81
2023-01-28T23:13:11.628Z,102540.88
2023-01-28T23:15:13.766Z,102535.50
2023-01-28T23:17:15.788Z,102535.50
2023-01-28T23:19:20.534Z,102530.94
2023-01-28T23:21:24.107Z,102531.81
2023-01-28T23:23:27.538Z,102528.16
2023-01-28T23:25:29.251Z,102532.56
2023-01-28T23:27:31.088Z,102520.72
2023-01-28T23:29:32.652Z,102530.63
2023-01-28T23:31:34.442Z,102522.44
2023-01-28T23:33:36.153Z,102518.81
2023-01-28T23:35:38.755Z,102518.81
2023-01-28T23:37:40.402Z,102517.81
2023-01-28T23:39:43.379Z,102525.88
2023-01-28T23:41:45.120Z,102539.19
2023-01-28T23:43:46.817Z,102539.94